Patriot — WDC2859 — position and weather

sailwx.info

Track history (hours):
 
Tides and Currents Weather Stations Pressure Air Temp Water Temp Dewpoint Dewpoint Depression Visibility Wind Speed Wind Dir Waves Ship Positions

Patriot

Owner: AMNAV Maritime Corporation, Oakland, CA. More information available from US FCC via Universal Licensing System and Coast Guard Vessel Documentation Center.

Last reported at 2016-May-03 06:33 UTC. Time now 2016-May-03 06:51 UTC.
Position N 37°49' W 122°19'.

Length 31 m; draft 4.6 m.

Type: Tug. MMSI: 366998680.

Date/timePositionNaut miles runAvg speedWind from/ knotsBaromVisibWave heightAir tempDewpointWater temp
2016-May-03 06:33N 37°49' W 122°19'0 0.0
2016-May-03 05:34N 37°49' W 122°19'0 0.0
2016-May-03 04:33N 37°49' W 122°19'0 0.0
2016-May-03 03:34N 37°49' W 122°19'0 0.0
2016-May-03 02:33N 37°49' W 122°19'0 0.0
2016-May-03 01:34N 37°49' W 122°19'0 0.0
2016-May-03 00:33N 37°49' W 122°19'2 1.5
2016-May-02 23:33N 37°48' W 122°19'2 1.6
2016-May-02 22:33N 37°49' W 122°19'0 0.0
2016-May-02 21:33N 37°49' W 122°19'0 0.0
2016-May-02 20:33N 37°49' W 122°19'0 0.0
2016-May-02 19:33N 37°49' W 122°19'0 0.0
2016-May-02 18:33N 37°49' W 122°19'0 0.0
2016-May-02 17:33N 37°49' W 122°19'0 0.0
2016-May-02 16:33N 37°49' W 122°19'0 0.0
2016-May-02 15:33N 37°49' W 122°19'0 0.0
2016-May-02 14:33N 37°49' W 122°19'0 0.0
2016-May-02 13:33N 37°49' W 122°19'0 0.0
2016-May-02 12:33N 37°49' W 122°19'0 0.0
2016-May-02 11:32N 37°49' W 122°19'0 0.0
2016-May-02 10:33N 37°49' W 122°19'0 0.0
2016-May-02 09:33N 37°49' W 122°19'0 0.0
2016-May-02 08:33N 37°49' W 122°19'2 1.6
2016-May-02 07:33N 37°48' W 122°19'0 0.3
2016-May-02 06:33N 37°48' W 122°19'2 1.8
2016-May-02 05:33N 37°48' W 122°21'0 0.3
2016-May-02 04:33N 37°48' W 122°21'3 3.4
2016-May-02 03:33N 37°51' W 122°23'3 3.5
2016-May-02 02:33N 37°54' W 122°22'1 1.4
2016-May-02 01:33N 37°54' W 122°24'4 4.2
2016-May-02 00:33N 37°50' W 122°22'3 3.0
2016-May-01 23:33N 37°49' W 122°19'0 0.0
2016-May-01 22:33N 37°49' W 122°19'0 0.0
2016-May-01 21:33N 37°49' W 122°19'0 0.0
2016-May-01 20:33N 37°49' W 122°19'0 0.0
2016-May-01 19:33N 37°49' W 122°19'0 0.0
2016-May-01 18:33N 37°49' W 122°19'3 2.6
2016-May-01 17:33N 37°50' W 122°22'5 5.1
2016-May-01 16:33N 37°55' W 122°22'0 0.1
2016-May-01 15:33N 37°55' W 122°22'6 5.7
2016-May-01 14:33N 37°49' W 122°21'2 2.2
2016-May-01 13:33N 37°49' W 122°19'0 0.0
2016-May-01 12:34N 37°49' W 122°19'0 0.0
2016-May-01 11:33N 37°49' W 122°19'0 0.0
2016-May-01 10:32N 37°49' W 122°19'0 0.0
2016-May-01 09:33N 37°49' W 122°19'0 0.0
2016-May-01 08:33N 37°49' W 122°19'0 0.0
2016-May-01 07:33N 37°49' W 122°19'0 0.0
2016-May-01 06:33N 37°49' W 122°19'0 0.0
2016-May-01 05:33N 37°49' W 122°19'0 0.0
2016-May-01 04:34N 37°49' W 122°19'0 0.0
2016-May-01 03:33N 37°49' W 122°19'0 0.0
2016-May-01 02:33N 37°49' W 122°19'0 0.0
2016-May-01 01:33N 37°49' W 122°19'0 0.0
2016-May-01 00:33N 37°49' W 122°19'0 0.0
2016-Apr-30 23:33N 37°49' W 122°19'0 0.0
2016-Apr-30 22:33N 37°49' W 122°19'0 0.0
2016-Apr-30 21:31N 37°49' W 122°19'0 0.0
2016-Apr-30 20:32N 37°49' W 122°19'0 0.0
2016-Apr-30 19:33N 37°49' W 122°19'0 0.0
2016-Apr-30 18:33N 37°49' W 122°19'0 0.0
2016-Apr-30 17:33N 37°49' W 122°19'0 0.0
2016-Apr-30 16:33N 37°49' W 122°19'0 0.0
2016-Apr-30 15:33N 37°49' W 122°19'0 0.0
2016-Apr-30 14:33N 37°49' W 122°19'0 0.0
2016-Apr-30 13:34N 37°49' W 122°19'2 1.5
2016-Apr-30 12:33N 37°49' W 122°20'0 0.2
2016-Apr-30 11:33N 37°48' W 122°21'2 1.8
2016-Apr-30 10:33N 37°49' W 122°19'0 0.0
2016-Apr-30 09:33N 37°49' W 122°19'0 0.0
2016-Apr-30 08:33N 37°49' W 122°19'0 0.0
2016-Apr-30 07:33N 37°49' W 122°19'0 0.0
2016-Apr-30 06:33N 37°49' W 122°19'0 0.0
2016-Apr-30 05:33N 37°49' W 122°19'0 0.0
2016-Apr-30 04:33N 37°49' W 122°19'0 0.0
2016-Apr-30 03:33N 37°49' W 122°19'0 0.0
2016-Apr-30 02:33N 37°49' W 122°19'0 0.0
2016-Apr-30 01:33N 37°49' W 122°19'0 0.0
2016-Apr-30 00:33N 37°49' W 122°19'0 0.0
2016-Apr-29 23:32N 37°49' W 122°19'0 0.0
2016-Apr-29 22:33N 37°49' W 122°19'0 0.0
2016-Apr-29 21:33N 37°49' W 122°19'0 0.0
2016-Apr-29 20:33N 37°49' W 122°19'0 0.4
2016-Apr-29 19:33N 37°49' W 122°19'2 1.7
2016-Apr-29 18:33N 37°48' W 122°18'0 0.4
2016-Apr-29 17:33N 37°48' W 122°19'2 1.7
2016-Apr-29 16:33N 37°49' W 122°19'0 0.0
2016-Apr-29 12:33N 37°49' W 122°19'0 0.0
2016-Apr-29 11:33N 37°49' W 122°19'0 0.0
2016-Apr-29 10:33N 37°49' W 122°19'0 0.0
2016-Apr-29 09:33N 37°49' W 122°19'0 0.0
2016-Apr-29 08:33N 37°49' W 122°19'0 0.0
2016-Apr-29 07:33N 37°49' W 122°19'0 0.0
2016-Apr-29 06:33N 37°49' W 122°19'0 0.0
2016-Apr-29 05:33N 37°49' W 122°19'0 0.0
2016-Apr-29 04:33N 37°49' W 122°19'0 0.0
2016-Apr-29 03:33N 37°49' W 122°19'0 0.0
2016-Apr-29 02:33N 37°49' W 122°19'0 0.0
2016-Apr-29 01:33N 37°49' W 122°19'0 0.0
2016-Apr-29 00:33N 37°49' W 122°19'2 1.6
2016-Apr-28 23:33N 37°48' W 122°19'0 0.1
2016-Apr-28 22:33N 37°48' W 122°19'6 6.4
2016-Apr-28 21:34N 37°53' W 122°24'3 2.7
2016-Apr-28 20:34N 37°55' W 122°22'4 4.0
2016-Apr-28 19:34N 37°51' W 122°23'3 3.3
2016-Apr-28 18:33N 37°49' W 122°19'0 0.0
2016-Apr-28 17:33N 37°49' W 122°19'0 0.0
2016-Apr-28 16:33N 37°49' W 122°19'0 0.0
2016-Apr-28 15:33N 37°49' W 122°19'0 0.0
2016-Apr-28 14:33N 37°49' W 122°19'0 0.0
2016-Apr-28 13:33N 37°49' W 122°19'0 0.0
2016-Apr-28 12:33N 37°49' W 122°19'0 0.0
2016-Apr-28 11:33N 37°49' W 122°19'0 0.0
2016-Apr-28 10:33N 37°49' W 122°19'0 0.0
2016-Apr-28 09:33N 37°49' W 122°19'0 0.0
2016-Apr-28 08:33N 37°49' W 122°19'0 0.0
2016-Apr-28 07:33N 37°49' W 122°19'0 0.0
2016-Apr-28 06:33N 37°49' W 122°19'0 0.0
2016-Apr-28 05:33N 37°49' W 122°19'0 0.0
2016-Apr-28 04:33N 37°49' W 122°19'5 4.5
2016-Apr-28 03:33N 37°52' W 122°24'3 3.1
2016-Apr-28 02:33N 37°54' W 122°22'3 2.8
2016-Apr-28 01:33N 37°54' W 122°25'0 0.4
2016-Apr-28 00:33N 37°54' W 122°25'3 2.5
2016-Apr-27 23:33N 37°55' W 122°22'0 0.0
2016-Apr-27 22:33N 37°55' W 122°22'5 5.0
2016-Apr-27 21:33N 37°59' W 122°26'10 8.8
2016-Apr-27 20:25N 38°03' W 122°15'0 0.0
2016-Apr-27 19:30N 38°03' W 122°15'0 0.0
2016-Apr-27 18:31N 38°03' W 122°15'0 0.0
2016-Apr-27 11:27N 38°03' W 122°15'0 0.0
2016-Apr-27 10:31N 38°03' W 122°15'0 0.0
2016-Apr-27 09:33N 38°03' W 122°15'2 0.1
2016-Apr-26 01:33N 38°04' W 122°17'8 7.7
2016-Apr-26 00:32N 37°59' W 122°25'9 9.6
2016-Apr-25 23:34N 37°50' W 122°22'3 2.6
2016-Apr-25 22:33N 37°49' W 122°19'0 0.0
2016-Apr-25 21:33N 37°49' W 122°19'0 0.0
2016-Apr-25 20:33N 37°49' W 122°19'0 0.0
2016-Apr-25 19:33N 37°49' W 122°19'0 0.0
2016-Apr-25 18:33N 37°49' W 122°19'0 0.0
2016-Apr-25 17:33N 37°49' W 122°19'0 0.0
2016-Apr-25 16:33N 37°49' W 122°19'0 0.0
2016-Apr-25 15:33N 37°49' W 122°19'0 0.0
2016-Apr-25 14:33N 37°49' W 122°19'0 0.0
2016-Apr-25 13:33N 37°49' W 122°19'0 0.0
2016-Apr-25 12:33N 37°49' W 122°19'0 0.0
2016-Apr-25 11:34N 37°49' W 122°19'0 0.0
2016-Apr-25 10:33N 37°49' W 122°19'0 0.0
2016-Apr-25 09:33N 37°49' W 122°19'0 0.0
2016-Apr-25 08:33N 37°49' W 122°19'0 0.0
2016-Apr-25 07:33N 37°49' W 122°19'0 0.0
2016-Apr-25 06:33N 37°49' W 122°19'0 0.0
2016-Apr-25 05:33N 37°49' W 122°19'0 0.0
2016-Apr-25 04:33N 37°49' W 122°19'0 0.0
2016-Apr-25 03:33N 37°49' W 122°19'0 0.0
2016-Apr-25 02:33N 37°49' W 122°19'0 0.0
2016-Apr-25 01:33N 37°49' W 122°19'0 0.0
2016-Apr-25 00:33N 37°49' W 122°19'0 0.0
2016-Apr-24 23:33N 37°49' W 122°19'0 0.0
2016-Apr-24 22:33N 37°49' W 122°19'0 0.0
2016-Apr-24 21:33N 37°49' W 122°19'0 0.0
2016-Apr-24 20:33N 37°49' W 122°19'0 0.0
2016-Apr-24 19:33N 37°49' W 122°19'0 0.0
2016-Apr-24 18:33N 37°49' W 122°19'0 0.0
2016-Apr-24 17:33N 37°49' W 122°19'0 0.0
2016-Apr-24 16:33N 37°49' W 122°19'0 0.0
2016-Apr-24 15:33N 37°49' W 122°19'0 0.0
2016-Apr-24 14:33N 37°49' W 122°19'0 0.0
2016-Apr-24 13:33N 37°49' W 122°19'0 0.0
2016-Apr-24 12:33N 37°49' W 122°19'0 0.0
2016-Apr-24 11:33N 37°49' W 122°19'0 0.0
2016-Apr-24 10:33N 37°49' W 122°19'0 0.0
2016-Apr-24 09:33N 37°49' W 122°19'0 0.0
2016-Apr-24 08:33N 37°49' W 122°19'0 0.0
2016-Apr-24 07:33N 37°49' W 122°19'0 0.0
2016-Apr-24 06:33N 37°49' W 122°19'0 0.0
2016-Apr-24 05:32N 37°49' W 122°19'0 0.0
2016-Apr-24 04:33N 37°49' W 122°19'0 0.0
2016-Apr-24 03:33N 37°49' W 122°19'0 0.0
2016-Apr-24 02:33N 37°49' W 122°19'0 0.0
2016-Apr-24 01:33N 37°49' W 122°19'0 0.0
2016-Apr-24 00:33N 37°49' W 122°19'0 0.0
2016-Apr-23 23:33N 37°49' W 122°19'0 0.0
2016-Apr-23 22:33N 37°49' W 122°19'0 0.0
2016-Apr-23 21:33N 37°49' W 122°19'0 0.0
2016-Apr-23 20:33N 37°49' W 122°19'0 0.0
2016-Apr-23 19:33N 37°49' W 122°19'0 0.0
2016-Apr-23 18:33N 37°49' W 122°19'0 0.0
2016-Apr-23 17:33N 37°49' W 122°19'0 0.0
2016-Apr-23 16:33N 37°49' W 122°19'0 0.0
2016-Apr-23 15:33N 37°49' W 122°19'0 0.0
2016-Apr-23 14:33N 37°49' W 122°19'0 0.0
2016-Apr-23 13:33N 37°49' W 122°19'0 0.0
2016-Apr-23 12:33N 37°49' W 122°19'0 0.0
2016-Apr-23 11:33N 37°49' W 122°19'1 0.8
2016-Apr-23 10:33N 37°49' W 122°19'1 0.9
2016-Apr-23 09:34N 37°48' W 122°21'2 1.7
2016-Apr-23 08:34N 37°49' W 122°19'0 0.0
2016-Apr-23 07:33N 37°49' W 122°19'0 0.0
2016-Apr-23 06:33N 37°49' W 122°19'  
Track history (hours):
 
Tides and Currents Weather Stations Pressure Air Temp Water Temp Dewpoint Dewpoint Depression Visibility Wind Speed Wind Dir Waves Ship Positions

Patriot

Owner: AMNAV Maritime Corporation, Oakland, CA. More information available from US FCC via Universal Licensing System and Coast Guard Vessel Documentation Center.

Last reported at 2016-May-03 06:33 UTC. Time now 2016-May-03 06:51 UTC.
Position N 37°49' W 122°19'.

Length 31 m; draft 4.6 m.

Type: Tug. MMSI: 366998680.

Date/timePositionNaut miles runAvg speedWind from/ knotsBaromVisibWave heightAir tempDewpointWater temp
2016-May-03 06:33N 37°49' W 122°19'0 0.0
2016-May-03 05:34N 37°49' W 122°19'0 0.0
2016-May-03 04:33N 37°49' W 122°19'0 0.0
2016-May-03 03:34N 37°49' W 122°19'0 0.0
2016-May-03 02:33N 37°49' W 122°19'0 0.0
2016-May-03 01:34N 37°49' W 122°19'0 0.0
2016-May-03 00:33N 37°49' W 122°19'2 1.5
2016-May-02 23:33N 37°48' W 122°19'2 1.6
2016-May-02 22:33N 37°49' W 122°19'0 0.0
2016-May-02 21:33N 37°49' W 122°19'0 0.0
2016-May-02 20:33N 37°49' W 122°19'0 0.0
2016-May-02 19:33N 37°49' W 122°19'0 0.0
2016-May-02 18:33N 37°49' W 122°19'0 0.0
2016-May-02 17:33N 37°49' W 122°19'0 0.0
2016-May-02 16:33N 37°49' W 122°19'0 0.0
2016-May-02 15:33N 37°49' W 122°19'0 0.0
2016-May-02 14:33N 37°49' W 122°19'0 0.0
2016-May-02 13:33N 37°49' W 122°19'0 0.0
2016-May-02 12:33N 37°49' W 122°19'0 0.0
2016-May-02 11:32N 37°49' W 122°19'0 0.0
2016-May-02 10:33N 37°49' W 122°19'0 0.0
2016-May-02 09:33N 37°49' W 122°19'0 0.0
2016-May-02 08:33N 37°49' W 122°19'2 1.6
2016-May-02 07:33N 37°48' W 122°19'0 0.3
2016-May-02 06:33N 37°48' W 122°19'2 1.8
2016-May-02 05:33N 37°48' W 122°21'0 0.3
2016-May-02 04:33N 37°48' W 122°21'3 3.4
2016-May-02 03:33N 37°51' W 122°23'3 3.5
2016-May-02 02:33N 37°54' W 122°22'1 1.4
2016-May-02 01:33N 37°54' W 122°24'4 4.2
2016-May-02 00:33N 37°50' W 122°22'3 3.0
2016-May-01 23:33N 37°49' W 122°19'0 0.0
2016-May-01 22:33N 37°49' W 122°19'0 0.0
2016-May-01 21:33N 37°49' W 122°19'0 0.0
2016-May-01 20:33N 37°49' W 122°19'0 0.0
2016-May-01 19:33N 37°49' W 122°19'0 0.0
2016-May-01 18:33N 37°49' W 122°19'3 2.6
2016-May-01 17:33N 37°50' W 122°22'5 5.1
2016-May-01 16:33N 37°55' W 122°22'0 0.1
2016-May-01 15:33N 37°55' W 122°22'6 5.7
2016-May-01 14:33N 37°49' W 122°21'2 2.2
2016-May-01 13:33N 37°49' W 122°19'0 0.0
2016-May-01 12:34N 37°49' W 122°19'0 0.0
2016-May-01 11:33N 37°49' W 122°19'0 0.0
2016-May-01 10:32N 37°49' W 122°19'0 0.0
2016-May-01 09:33N 37°49' W 122°19'0 0.0
2016-May-01 08:33N 37°49' W 122°19'0 0.0
2016-May-01 07:33N 37°49' W 122°19'0 0.0
2016-May-01 06:33N 37°49' W 122°19'0 0.0
2016-May-01 05:33N 37°49' W 122°19'0 0.0
2016-May-01 04:34N 37°49' W 122°19'0 0.0
2016-May-01 03:33N 37°49' W 122°19'0 0.0
2016-May-01 02:33N 37°49' W 122°19'0 0.0
2016-May-01 01:33N 37°49' W 122°19'0 0.0
2016-May-01 00:33N 37°49' W 122°19'0 0.0
2016-Apr-30 23:33N 37°49' W 122°19'0 0.0
2016-Apr-30 22:33N 37°49' W 122°19'0 0.0
2016-Apr-30 21:31N 37°49' W 122°19'0 0.0
2016-Apr-30 20:32N 37°49' W 122°19'0 0.0
2016-Apr-30 19:33N 37°49' W 122°19'0 0.0
2016-Apr-30 18:33N 37°49' W 122°19'0 0.0
2016-Apr-30 17:33N 37°49' W 122°19'0 0.0
2016-Apr-30 16:33N 37°49' W 122°19'0 0.0
2016-Apr-30 15:33N 37°49' W 122°19'0 0.0
2016-Apr-30 14:33N 37°49' W 122°19'0 0.0
2016-Apr-30 13:34N 37°49' W 122°19'2 1.5
2016-Apr-30 12:33N 37°49' W 122°20'0 0.2
2016-Apr-30 11:33N 37°48' W 122°21'2 1.8
2016-Apr-30 10:33N 37°49' W 122°19'0 0.0
2016-Apr-30 09:33N 37°49' W 122°19'0 0.0
2016-Apr-30 08:33N 37°49' W 122°19'0 0.0
2016-Apr-30 07:33N 37°49' W 122°19'0 0.0
2016-Apr-30 06:33N 37°49' W 122°19'0 0.0
2016-Apr-30 05:33N 37°49' W 122°19'0 0.0
2016-Apr-30 04:33N 37°49' W 122°19'0 0.0
2016-Apr-30 03:33N 37°49' W 122°19'0 0.0
2016-Apr-30 02:33N 37°49' W 122°19'0 0.0
2016-Apr-30 01:33N 37°49' W 122°19'0 0.0
2016-Apr-30 00:33N 37°49' W 122°19'0 0.0
2016-Apr-29 23:32N 37°49' W 122°19'0 0.0
2016-Apr-29 22:33N 37°49' W 122°19'0 0.0
2016-Apr-29 21:33N 37°49' W 122°19'0 0.0
2016-Apr-29 20:33N 37°49' W 122°19'0 0.4
2016-Apr-29 19:33N 37°49' W 122°19'2 1.7
2016-Apr-29 18:33N 37°48' W 122°18'0 0.4
2016-Apr-29 17:33N 37°48' W 122°19'2 1.7
2016-Apr-29 16:33N 37°49' W 122°19'0 0.0
2016-Apr-29 12:33N 37°49' W 122°19'0 0.0
2016-Apr-29 11:33N 37°49' W 122°19'0 0.0
2016-Apr-29 10:33N 37°49' W 122°19'0 0.0
2016-Apr-29 09:33N 37°49' W 122°19'0 0.0
2016-Apr-29 08:33N 37°49' W 122°19'0 0.0
2016-Apr-29 07:33N 37°49' W 122°19'0 0.0
2016-Apr-29 06:33N 37°49' W 122°19'0 0.0
2016-Apr-29 05:33N 37°49' W 122°19'0 0.0
2016-Apr-29 04:33N 37°49' W 122°19'0 0.0
2016-Apr-29 03:33N 37°49' W 122°19'0 0.0
2016-Apr-29 02:33N 37°49' W 122°19'0 0.0
2016-Apr-29 01:33N 37°49' W 122°19'0 0.0
2016-Apr-29 00:33N 37°49' W 122°19'2 1.6
2016-Apr-28 23:33N 37°48' W 122°19'0 0.1
2016-Apr-28 22:33N 37°48' W 122°19'6 6.4
2016-Apr-28 21:34N 37°53' W 122°24'3 2.7
2016-Apr-28 20:34N 37°55' W 122°22'4 4.0
2016-Apr-28 19:34N 37°51' W 122°23'3 3.3
2016-Apr-28 18:33N 37°49' W 122°19'0 0.0
2016-Apr-28 17:33N 37°49' W 122°19'0 0.0
2016-Apr-28 16:33N 37°49' W 122°19'0 0.0
2016-Apr-28 15:33N 37°49' W 122°19'0 0.0
2016-Apr-28 14:33N 37°49' W 122°19'0 0.0
2016-Apr-28 13:33N 37°49' W 122°19'0 0.0
2016-Apr-28 12:33N 37°49' W 122°19'0 0.0
2016-Apr-28 11:33N 37°49' W 122°19'0 0.0
2016-Apr-28 10:33N 37°49' W 122°19'0 0.0
2016-Apr-28 09:33N 37°49' W 122°19'0 0.0
2016-Apr-28 08:33N 37°49' W 122°19'0 0.0
2016-Apr-28 07:33N 37°49' W 122°19'0 0.0
2016-Apr-28 06:33N 37°49' W 122°19'0 0.0
2016-Apr-28 05:33N 37°49' W 122°19'0 0.0
2016-Apr-28 04:33N 37°49' W 122°19'5 4.5
2016-Apr-28 03:33N 37°52' W 122°24'3 3.1
2016-Apr-28 02:33N 37°54' W 122°22'3 2.8
2016-Apr-28 01:33N 37°54' W 122°25'0 0.4
2016-Apr-28 00:33N 37°54' W 122°25'3 2.5
2016-Apr-27 23:33N 37°55' W 122°22'0 0.0
2016-Apr-27 22:33N 37°55' W 122°22'5 5.0
2016-Apr-27 21:33N 37°59' W 122°26'10 8.8
2016-Apr-27 20:25N 38°03' W 122°15'0 0.0
2016-Apr-27 19:30N 38°03' W 122°15'0 0.0
2016-Apr-27 18:31N 38°03' W 122°15'0 0.0
2016-Apr-27 11:27N 38°03' W 122°15'0 0.0
2016-Apr-27 10:31N 38°03' W 122°15'0 0.0
2016-Apr-27 09:33N 38°03' W 122°15'2 0.1
2016-Apr-26 01:33N 38°04' W 122°17'8 7.7
2016-Apr-26 00:32N 37°59' W 122°25'9 9.6
2016-Apr-25 23:34N 37°50' W 122°22'3 2.6
2016-Apr-25 22:33N 37°49' W 122°19'0 0.0
2016-Apr-25 21:33N 37°49' W 122°19'0 0.0
2016-Apr-25 20:33N 37°49' W 122°19'0 0.0
2016-Apr-25 19:33N 37°49' W 122°19'0 0.0
2016-Apr-25 18:33N 37°49' W 122°19'0 0.0
2016-Apr-25 17:33N 37°49' W 122°19'0 0.0
2016-Apr-25 16:33N 37°49' W 122°19'0 0.0
2016-Apr-25 15:33N 37°49' W 122°19'0 0.0
2016-Apr-25 14:33N 37°49' W 122°19'0 0.0
2016-Apr-25 13:33N 37°49' W 122°19'0 0.0
2016-Apr-25 12:33N 37°49' W 122°19'0 0.0
2016-Apr-25 11:34N 37°49' W 122°19'0 0.0
2016-Apr-25 10:33N 37°49' W 122°19'0 0.0
2016-Apr-25 09:33N 37°49' W 122°19'0 0.0
2016-Apr-25 08:33N 37°49' W 122°19'0 0.0
2016-Apr-25 07:33N 37°49' W 122°19'0 0.0
2016-Apr-25 06:33N 37°49' W 122°19'0 0.0
2016-Apr-25 05:33N 37°49' W 122°19'0 0.0
2016-Apr-25 04:33N 37°49' W 122°19'0 0.0
2016-Apr-25 03:33N 37°49' W 122°19'0 0.0
2016-Apr-25 02:33N 37°49' W 122°19'0 0.0
2016-Apr-25 01:33N 37°49' W 122°19'0 0.0
2016-Apr-25 00:33N 37°49' W 122°19'0 0.0
2016-Apr-24 23:33N 37°49' W 122°19'0 0.0
2016-Apr-24 22:33N 37°49' W 122°19'0 0.0
2016-Apr-24 21:33N 37°49' W 122°19'0 0.0
2016-Apr-24 20:33N 37°49' W 122°19'0 0.0
2016-Apr-24 19:33N 37°49' W 122°19'0 0.0
2016-Apr-24 18:33N 37°49' W 122°19'0 0.0
2016-Apr-24 17:33N 37°49' W 122°19'0 0.0
2016-Apr-24 16:33N 37°49' W 122°19'0 0.0
2016-Apr-24 15:33N 37°49' W 122°19'0 0.0
2016-Apr-24 14:33N 37°49' W 122°19'0 0.0
2016-Apr-24 13:33N 37°49' W 122°19'0 0.0
2016-Apr-24 12:33N 37°49' W 122°19'0 0.0
2016-Apr-24 11:33N 37°49' W 122°19'0 0.0
2016-Apr-24 10:33N 37°49' W 122°19'0 0.0
2016-Apr-24 09:33N 37°49' W 122°19'0 0.0
2016-Apr-24 08:33N 37°49' W 122°19'0 0.0
2016-Apr-24 07:33N 37°49' W 122°19'0 0.0
2016-Apr-24 06:33N 37°49' W 122°19'0 0.0
2016-Apr-24 05:32N 37°49' W 122°19'0 0.0
2016-Apr-24 04:33N 37°49' W 122°19'0 0.0
2016-Apr-24 03:33N 37°49' W 122°19'0 0.0
2016-Apr-24 02:33N 37°49' W 122°19'0 0.0
2016-Apr-24 01:33N 37°49' W 122°19'0 0.0
2016-Apr-24 00:33N 37°49' W 122°19'0 0.0
2016-Apr-23 23:33N 37°49' W 122°19'0 0.0
2016-Apr-23 22:33N 37°49' W 122°19'0 0.0
2016-Apr-23 21:33N 37°49' W 122°19'0 0.0
2016-Apr-23 20:33N 37°49' W 122°19'0 0.0
2016-Apr-23 19:33N 37°49' W 122°19'0 0.0
2016-Apr-23 18:33N 37°49' W 122°19'0 0.0
2016-Apr-23 17:33N 37°49' W 122°19'0 0.0
2016-Apr-23 16:33N 37°49' W 122°19'0 0.0
2016-Apr-23 15:33N 37°49' W 122°19'0 0.0
2016-Apr-23 14:33N 37°49' W 122°19'0 0.0
2016-Apr-23 13:33N 37°49' W 122°19'0 0.0
2016-Apr-23 12:33N 37°49' W 122°19'0 0.0
2016-Apr-23 11:33N 37°49' W 122°19'1 0.8
2016-Apr-23 10:33N 37°49' W 122°19'1 0.9
2016-Apr-23 09:34N 37°48' W 122°21'2 1.7
2016-Apr-23 08:34N 37°49' W 122°19'0 0.0
2016-Apr-23 07:33N 37°49' W 122°19'0 0.0
2016-Apr-23 06:33N 37°49' W 122°19'  

Dump ship's entire track history